sensor_id;sensor_type;location;lat;lon;timestamp;P1;durP1;ratioP1;P2;durP2;ratioP2
56599;SDS011;51832;48.152;11.530;2022-09-13T00:03:21;3.42;;;2.38;;
56599;SDS011;51832;48.152;11.530;2022-09-13T00:08:22;3.70;;;2.88;;
56599;SDS011;51832;48.152;11.530;2022-09-13T00:13:23;3.30;;;2.90;;
56599;SDS011;51832;48.152;11.530;2022-09-13T00:18:23;3.03;;;2.70;;
56599;SDS011;51832;48.152;11.530;2022-09-13T00:23:24;2.95;;;2.42;;
56599;SDS011;51832;48.152;11.530;2022-09-13T00:28:24;3.20;;;2.60;;
56599;SDS011;51832;48.152;11.530;2022-09-13T00:33:24;3.00;;;2.60;;
56599;SDS011;51832;48.152;11.530;2022-09-13T00:38:25;3.03;;;2.73;;
56599;SDS011;51832;48.152;11.530;2022-09-13T00:48:53;3.08;;;2.80;;
56599;SDS011;51832;48.152;11.530;2022-09-13T00:54:15;2.50;;;2.30;;
56599;SDS011;51832;48.152;11.530;2022-09-13T00:59:21;3.03;;;2.60;;
56599;SDS011;51832;48.152;11.530;2022-09-13T01:04:30;2.60;;;2.40;;
56599;SDS011;51832;48.152;11.530;2022-09-13T01:09:37;2.97;;;2.40;;
56599;SDS011;51832;48.152;11.530;2022-09-13T01:14:40;3.05;;;2.50;;
56599;SDS011;51832;48.152;11.530;2022-09-13T01:19:42;3.05;;;2.70;;
56599;SDS011;51832;48.152;11.530;2022-09-13T01:30:23;2.85;;;2.33;;
56599;SDS011;51832;48.152;11.530;2022-09-13T01:35:33;3.78;;;2.92;;
56599;SDS011;51832;48.152;11.530;2022-09-13T01:56:50;3.67;;;2.53;;
56599;SDS011;51832;48.152;11.530;2022-09-13T02:02:26;3.58;;;2.20;;
56599;SDS011;51832;48.152;11.530;2022-09-13T02:07:32;2.80;;;2.00;;
56599;SDS011;51832;48.152;11.530;2022-09-13T02:12:37;2.00;;;1.80;;
56599;SDS011;51832;48.152;11.530;2022-09-13T02:17:59;2.10;;;1.88;;
56599;SDS011;51832;48.152;11.530;2022-09-13T02:23:10;2.20;;;2.00;;
56599;SDS011;51832;48.152;11.530;2022-09-13T02:28:20;2.25;;;2.03;;
56599;SDS011;51832;48.152;11.530;2022-09-13T02:33:28;3.05;;;2.15;;
56599;SDS011;51832;48.152;11.530;2022-09-13T02:38:49;1.95;;;1.83;;
56599;SDS011;51832;48.152;11.530;2022-09-13T02:44:06;3.08;;;1.83;;
56599;SDS011;51832;48.152;11.530;2022-09-13T02:54:39;1.75;;;1.65;;
56599;SDS011;51832;48.152;11.530;2022-09-13T02:59:45;1.75;;;1.65;;
56599;SDS011;51832;48.152;11.530;2022-09-13T03:04:49;1.90;;;1.70;;
56599;SDS011;51832;48.152;11.530;2022-09-13T03:10:00;1.60;;;1.50;;
56599;SDS011;51832;48.152;11.530;2022-09-13T03:20:21;2.00;;;1.80;;
56599;SDS011;51832;48.152;11.530;2022-09-13T03:25:32;1.60;;;1.50;;
56599;SDS011;51832;48.152;11.530;2022-09-13T03:30:44;1.77;;;1.67;;
56599;SDS011;51832;48.152;11.530;2022-09-13T03:35:56;2.65;;;1.50;;
56599;SDS011;51832;48.152;11.530;2022-09-13T03:41:14;1.80;;;1.70;;
56599;SDS011;51832;48.152;11.530;2022-09-13T03:46:27;1.85;;;1.60;;
56599;SDS011;51832;48.152;11.530;2022-09-13T03:51:31;2.00;;;1.50;;
56599;SDS011;51832;48.152;11.530;2022-09-13T03:56:32;1.60;;;1.50;;
56599;SDS011;51832;48.152;11.530;2022-09-13T04:01:33;1.33;;;1.23;;
56599;SDS011;51832;48.152;11.530;2022-09-13T04:06:34;2.78;;;1.55;;
56599;SDS011;51832;48.152;11.530;2022-09-13T04:11:35;2.15;;;1.42;;
56599;SDS011;51832;48.152;11.530;2022-09-13T04:16:36;2.58;;;1.88;;
56599;SDS011;51832;48.152;11.530;2022-09-13T04:21:37;2.10;;;1.90;;
56599;SDS011;51832;48.152;11.530;2022-09-13T04:26:37;1.45;;;1.23;;
56599;SDS011;51832;48.152;11.530;2022-09-13T04:31:38;1.45;;;1.35;;
56599;SDS011;51832;48.152;11.530;2022-09-13T04:36:38;2.75;;;1.50;;
56599;SDS011;51832;48.152;11.530;2022-09-13T04:41:39;1.90;;;1.40;;
56599;SDS011;51832;48.152;11.530;2022-09-13T04:46:40;2.35;;;1.40;;
56599;SDS011;51832;48.152;11.530;2022-09-13T04:51:41;1.45;;;1.30;;
56599;SDS011;51832;48.152;11.530;2022-09-13T04:56:42;2.03;;;1.50;;
56599;SDS011;51832;48.152;11.530;2022-09-13T05:01:43;1.50;;;1.40;;
56599;SDS011;51832;48.152;11.530;2022-09-13T05:06:46;2.63;;;1.40;;
56599;SDS011;51832;48.152;11.530;2022-09-13T05:11:47;1.58;;;1.48;;
56599;SDS011;51832;48.152;11.530;2022-09-13T05:16:50;2.08;;;1.60;;
56599;SDS011;51832;48.152;11.530;2022-09-13T05:21:50;2.63;;;1.60;;
56599;SDS011;51832;48.152;11.530;2022-09-13T05:26:51;3.65;;;1.55;;
56599;SDS011;51832;48.152;11.530;2022-09-13T05:31:52;3.05;;;1.70;;
56599;SDS011;51832;48.152;11.530;2022-09-13T05:36:53;1.55;;;1.45;;
56599;SDS011;51832;48.152;11.530;2022-09-13T05:41:54;2.92;;;1.65;;
56599;SDS011;51832;48.152;11.530;2022-09-13T05:46:55;1.48;;;1.30;;
56599;SDS011;51832;48.152;11.530;2022-09-13T05:51:55;1.63;;;1.50;;
56599;SDS011;51832;48.152;11.530;2022-09-13T05:56:56;2.25;;;1.60;;
56599;SDS011;51832;48.152;11.530;2022-09-13T06:01:56;3.40;;;1.70;;
56599;SDS011;51832;48.152;11.530;2022-09-13T06:06:57;1.98;;;1.50;;
56599;SDS011;51832;48.152;11.530;2022-09-13T06:11:58;3.05;;;1.50;;
56599;SDS011;51832;48.152;11.530;2022-09-13T06:16:58;2.35;;;1.38;;
56599;SDS011;51832;48.152;11.530;2022-09-13T06:21:58;3.72;;;1.60;;
56599;SDS011;51832;48.152;11.530;2022-09-13T06:26:59;3.13;;;1.50;;
56599;SDS011;51832;48.152;11.530;2022-09-13T06:31:59;3.35;;;1.27;;
56599;SDS011;51832;48.152;11.530;2022-09-13T06:37:00;1.35;;;1.23;;
56599;SDS011;51832;48.152;11.530;2022-09-13T06:42:00;1.50;;;1.40;;
56599;SDS011;51832;48.152;11.530;2022-09-13T06:47:01;1.65;;;1.52;;
56599;SDS011;51832;48.152;11.530;2022-09-13T06:52:01;1.88;;;1.30;;
56599;SDS011;51832;48.152;11.530;2022-09-13T06:57:02;2.30;;;1.45;;
56599;SDS011;51832;48.152;11.530;2022-09-13T07:02:03;3.30;;;1.75;;
56599;SDS011;51832;48.152;11.530;2022-09-13T07:07:04;1.95;;;1.42;;
56599;SDS011;51832;48.152;11.530;2022-09-13T07:12:04;3.17;;;1.30;;
56599;SDS011;51832;48.152;11.530;2022-09-13T07:17:06;1.75;;;1.45;;
56599;SDS011;51832;48.152;11.530;2022-09-13T07:22:06;2.08;;;1.40;;
56599;SDS011;51832;48.152;11.530;2022-09-13T07:27:07;2.65;;;1.60;;
56599;SDS011;51832;48.152;11.530;2022-09-13T07:32:07;3.55;;;1.55;;
56599;SDS011;51832;48.152;11.530;2022-09-13T07:37:07;1.63;;;1.30;;
56599;SDS011;51832;48.152;11.530;2022-09-13T07:42:08;1.52;;;1.20;;
56599;SDS011;51832;48.152;11.530;2022-09-13T07:47:09;5.32;;;1.55;;
56599;SDS011;51832;48.152;11.530;2022-09-13T07:52:10;1.38;;;1.27;;
56599;SDS011;51832;48.152;11.530;2022-09-13T07:57:10;1.65;;;1.50;;
56599;SDS011;51832;48.152;11.530;2022-09-13T08:02:11;6.20;;;1.70;;
56599;SDS011;51832;48.152;11.530;2022-09-13T08:07:12;1.23;;;1.10;;
56599;SDS011;51832;48.152;11.530;2022-09-13T08:12:13;1.65;;;1.25;;
56599;SDS011;51832;48.152;11.530;2022-09-13T08:17:16;2.65;;;1.20;;
56599;SDS011;51832;48.152;11.530;2022-09-13T08:22:16;4.50;;;1.40;;
56599;SDS011;51832;48.152;11.530;2022-09-13T08:27:16;1.75;;;1.23;;
56599;SDS011;51832;48.152;11.530;2022-09-13T08:32:17;1.30;;;1.20;;
56599;SDS011;51832;48.152;11.530;2022-09-13T08:37:17;3.87;;;1.33;;
56599;SDS011;51832;48.152;11.530;2022-09-13T08:42:23;1.55;;;1.30;;
56599;SDS011;51832;48.152;11.530;2022-09-13T08:47:51;2.33;;;1.55;;
56599;SDS011;51832;48.152;11.530;2022-09-13T09:03:27;1.52;;;1.30;;
56599;SDS011;51832;48.152;11.530;2022-09-13T09:08:42;1.95;;;1.20;;
56599;SDS011;51832;48.152;11.530;2022-09-13T09:13:50;2.95;;;1.77;;
56599;SDS011;51832;48.152;11.530;2022-09-13T09:18:57;3.42;;;1.88;;
56599;SDS011;51832;48.152;11.530;2022-09-13T09:24:10;3.28;;;1.42;;
56599;SDS011;51832;48.152;11.530;2022-09-13T09:29:19;1.85;;;1.45;;
56599;SDS011;51832;48.152;11.530;2022-09-13T09:34:34;1.60;;;1.30;;
56599;SDS011;51832;48.152;11.530;2022-09-13T09:39:43;2.22;;;1.55;;
56599;SDS011;51832;48.152;11.530;2022-09-13T09:44:45;1.35;;;1.30;;
56599;SDS011;51832;48.152;11.530;2022-09-13T09:49:50;2.35;;;1.80;;
56599;SDS011;51832;48.152;11.530;2022-09-13T09:55:22;1.98;;;1.65;;
56599;SDS011;51832;48.152;11.530;2022-09-13T10:00:32;2.80;;;1.65;;
56599;SDS011;51832;48.152;11.530;2022-09-13T10:05:36;3.00;;;1.70;;
56599;SDS011;51832;48.152;11.530;2022-09-13T10:10:42;2.10;;;1.48;;
56599;SDS011;51832;48.152;11.530;2022-09-13T10:16:04;1.45;;;1.35;;
56599;SDS011;51832;48.152;11.530;2022-09-13T10:21:21;1.40;;;1.30;;
56599;SDS011;51832;48.152;11.530;2022-09-13T10:26:24;2.08;;;1.83;;
56599;SDS011;51832;48.152;11.530;2022-09-13T10:31:29;2.67;;;1.48;;
56599;SDS011;51832;48.152;11.530;2022-09-13T10:36:33;2.63;;;1.45;;
56599;SDS011;51832;48.152;11.530;2022-09-13T10:41:38;1.73;;;1.48;;
56599;SDS011;51832;48.152;11.530;2022-09-13T10:46:44;1.67;;;1.10;;
56599;SDS011;51832;48.152;11.530;2022-09-13T10:51:49;3.58;;;1.48;;
56599;SDS011;51832;48.152;11.530;2022-09-13T10:56:49;3.33;;;1.40;;
56599;SDS011;51832;48.152;11.530;2022-09-13T11:12:18;1.40;;;1.30;;
56599;SDS011;51832;48.152;11.530;2022-09-13T12:04:37;1.60;;;1.38;;
56599;SDS011;51832;48.152;11.530;2022-09-13T12:20:42;1.40;;;1.30;;
56599;SDS011;51832;48.152;11.530;2022-09-13T12:42:05;1.40;;;1.30;;
56599;SDS011;51832;48.152;11.530;2022-09-13T12:58:16;16.33;;;3.13;;
56599;SDS011;51832;48.152;11.530;2022-09-13T13:03:31;1.50;;;1.05;;
56599;SDS011;51832;48.152;11.530;2022-09-13T13:08:36;0.90;;;0.90;;
56599;SDS011;51832;48.152;11.530;2022-09-13T13:13:44;1.80;;;1.63;;
56599;SDS011;51832;48.152;11.530;2022-09-13T13:18:56;3.00;;;1.30;;
56599;SDS011;51832;48.152;11.530;2022-09-13T13:29:16;1.30;;;1.00;;
56599;SDS011;51832;48.152;11.530;2022-09-13T13:54:30;1.65;;;1.30;;
56599;SDS011;51832;48.152;11.530;2022-09-13T13:59:53;1.50;;;1.00;;
56599;SDS011;51832;48.152;11.530;2022-09-13T14:05:07;1.10;;;0.98;;
56599;SDS011;51832;48.152;11.530;2022-09-13T14:10:13;1.48;;;1.10;;
56599;SDS011;51832;48.152;11.530;2022-09-13T14:15:41;3.10;;;2.80;;
56599;SDS011;51832;48.152;11.530;2022-09-13T14:20:56;2.30;;;1.27;;
56599;SDS011;51832;48.152;11.530;2022-09-13T14:26:04;2.45;;;0.90;;
56599;SDS011;51832;48.152;11.530;2022-09-13T14:31:05;2.40;;;1.23;;
56599;SDS011;51832;48.152;11.530;2022-09-13T14:36:12;1.10;;;1.00;;
56599;SDS011;51832;48.152;11.530;2022-09-13T14:41:30;1.50;;;1.00;;
56599;SDS011;51832;48.152;11.530;2022-09-13T14:46:35;3.90;;;1.17;;
56599;SDS011;51832;48.152;11.530;2022-09-13T14:51:48;1.33;;;1.10;;
56599;SDS011;51832;48.152;11.530;2022-09-13T15:01:57;3.00;;;1.40;;
56599;SDS011;51832;48.152;11.530;2022-09-13T15:07:08;2.00;;;1.00;;
56599;SDS011;51832;48.152;11.530;2022-09-13T15:12:36;1.20;;;1.10;;
56599;SDS011;51832;48.152;11.530;2022-09-13T15:23:01;3.33;;;1.20;;
56599;SDS011;51832;48.152;11.530;2022-09-13T15:28:01;1.30;;;1.20;;
56599;SDS011;51832;48.152;11.530;2022-09-13T15:33:03;2.93;;;1.20;;
56599;SDS011;51832;48.152;11.530;2022-09-13T15:43:27;1.23;;;1.13;;
56599;SDS011;51832;48.152;11.530;2022-09-13T15:48:33;1.73;;;1.40;;
56599;SDS011;51832;48.152;11.530;2022-09-13T15:53:35;1.30;;;1.20;;
56599;SDS011;51832;48.152;11.530;2022-09-13T15:58:37;1.70;;;1.60;;
56599;SDS011;51832;48.152;11.530;2022-09-13T16:03:38;2.37;;;1.63;;
56599;SDS011;51832;48.152;11.530;2022-09-13T16:08:39;3.80;;;1.77;;
56599;SDS011;51832;48.152;11.530;2022-09-13T16:13:39;2.00;;;1.73;;
56599;SDS011;51832;48.152;11.530;2022-09-13T16:18:40;5.20;;;1.77;;
56599;SDS011;51832;48.152;11.530;2022-09-13T16:23:40;3.20;;;1.70;;
56599;SDS011;51832;48.152;11.530;2022-09-13T16:28:40;2.40;;;1.77;;
56599;SDS011;51832;48.152;11.530;2022-09-13T16:33:41;2.03;;;1.67;;
56599;SDS011;51832;48.152;11.530;2022-09-13T16:38:42;4.22;;;2.38;;
56599;SDS011;51832;48.152;11.530;2022-09-13T16:43:42;4.22;;;2.72;;
56599;SDS011;51832;48.152;11.530;2022-09-13T16:48:42;4.73;;;2.50;;
56599;SDS011;51832;48.152;11.530;2022-09-13T16:53:43;2.20;;;2.00;;
56599;SDS011;51832;48.152;11.530;2022-09-13T16:58:44;6.03;;;2.80;;
56599;SDS011;51832;48.152;11.530;2022-09-13T17:03:49;4.30;;;2.60;;
56599;SDS011;51832;48.152;11.530;2022-09-13T17:08:57;3.33;;;2.53;;
56599;SDS011;51832;48.152;11.530;2022-09-13T17:14:01;5.60;;;2.95;;
56599;SDS011;51832;48.152;11.530;2022-09-13T17:19:04;3.22;;;2.88;;
56599;SDS011;51832;48.152;11.530;2022-09-13T17:24:10;4.97;;;3.10;;
56599;SDS011;51832;48.152;11.530;2022-09-13T17:29:11;4.03;;;2.13;;
56599;SDS011;51832;48.152;11.530;2022-09-13T17:34:12;4.70;;;2.17;;
56599;SDS011;51832;48.152;11.530;2022-09-13T17:39:13;3.47;;;2.10;;
56599;SDS011;51832;48.152;11.530;2022-09-13T17:44:14;3.28;;;2.65;;
56599;SDS011;51832;48.152;11.530;2022-09-13T17:49:15;4.85;;;3.17;;
56599;SDS011;51832;48.152;11.530;2022-09-13T17:54:15;3.40;;;2.60;;
56599;SDS011;51832;48.152;11.530;2022-09-13T17:59:19;2.92;;;2.40;;
56599;SDS011;51832;48.152;11.530;2022-09-13T18:04:22;3.63;;;2.42;;
56599;SDS011;51832;48.152;11.530;2022-09-13T18:09:23;2.80;;;2.50;;
56599;SDS011;51832;48.152;11.530;2022-09-13T18:14:24;5.05;;;3.63;;
56599;SDS011;51832;48.152;11.530;2022-09-13T18:19:26;3.70;;;3.05;;
56599;SDS011;51832;48.152;11.530;2022-09-13T18:24:27;3.80;;;3.30;;
56599;SDS011;51832;48.152;11.530;2022-09-13T18:29:27;4.90;;;3.65;;
56599;SDS011;51832;48.152;11.530;2022-09-13T18:34:30;7.13;;;4.15;;
56599;SDS011;51832;48.152;11.530;2022-09-13T18:39:30;4.37;;;2.57;;
56599;SDS011;51832;48.152;11.530;2022-09-13T18:44:31;3.33;;;2.73;;
56599;SDS011;51832;48.152;11.530;2022-09-13T18:49:32;3.17;;;2.63;;
56599;SDS011;51832;48.152;11.530;2022-09-13T18:54:33;4.80;;;3.42;;
56599;SDS011;51832;48.152;11.530;2022-09-13T18:59:34;3.83;;;2.75;;
56599;SDS011;51832;48.152;11.530;2022-09-13T19:04:34;4.97;;;3.50;;
56599;SDS011;51832;48.152;11.530;2022-09-13T19:09:36;3.63;;;3.10;;
56599;SDS011;51832;48.152;11.530;2022-09-13T19:14:39;4.82;;;3.38;;
56599;SDS011;51832;48.152;11.530;2022-09-13T19:19:39;3.63;;;3.15;;
56599;SDS011;51832;48.152;11.530;2022-09-13T19:24:40;3.87;;;2.87;;
56599;SDS011;51832;48.152;11.530;2022-09-13T19:29:40;3.53;;;3.03;;
56599;SDS011;51832;48.152;11.530;2022-09-13T19:34:41;3.60;;;2.85;;
56599;SDS011;51832;48.152;11.530;2022-09-13T19:39:41;4.25;;;2.97;;
56599;SDS011;51832;48.152;11.530;2022-09-13T19:44:42;3.50;;;3.20;;
56599;SDS011;51832;48.152;11.530;2022-09-13T19:49:42;3.38;;;3.08;;
56599;SDS011;51832;48.152;11.530;2022-09-13T19:54:46;4.90;;;3.70;;
56599;SDS011;51832;48.152;11.530;2022-09-13T19:59:46;6.22;;;3.58;;
56599;SDS011;51832;48.152;11.530;2022-09-13T20:04:47;5.15;;;2.90;;
56599;SDS011;51832;48.152;11.530;2022-09-13T20:09:48;3.72;;;2.92;;
56599;SDS011;51832;48.152;11.530;2022-09-13T20:14:49;3.65;;;3.08;;
56599;SDS011;51832;48.152;11.530;2022-09-13T20:19:50;5.85;;;3.70;;
56599;SDS011;51832;48.152;11.530;2022-09-13T20:24:50;6.78;;;3.20;;
56599;SDS011;51832;48.152;11.530;2022-09-13T20:29:51;8.43;;;3.50;;
56599;SDS011;51832;48.152;11.530;2022-09-13T20:34:52;4.47;;;3.15;;
56599;SDS011;51832;48.152;11.530;2022-09-13T20:39:52;3.78;;;2.97;;
56599;SDS011;51832;48.152;11.530;2022-09-13T20:44:53;4.63;;;2.90;;
56599;SDS011;51832;48.152;11.530;2022-09-13T20:49:53;3.72;;;2.58;;
56599;SDS011;51832;48.152;11.530;2022-09-13T20:54:54;4.53;;;3.17;;
56599;SDS011;51832;48.152;11.530;2022-09-13T20:59:54;3.63;;;2.97;;
56599;SDS011;51832;48.152;11.530;2022-09-13T21:04:54;3.43;;;2.97;;
56599;SDS011;51832;48.152;11.530;2022-09-13T21:09:55;3.75;;;3.22;;
56599;SDS011;51832;48.152;11.530;2022-09-13T21:15:00;4.20;;;3.15;;
56599;SDS011;51832;48.152;11.530;2022-09-13T21:20:00;3.20;;;2.90;;
56599;SDS011;51832;48.152;11.530;2022-09-13T21:25:01;5.63;;;4.00;;
56599;SDS011;51832;48.152;11.530;2022-09-13T21:30:02;4.32;;;3.92;;
56599;SDS011;51832;48.152;11.530;2022-09-13T21:35:04;4.90;;;3.85;;
56599;SDS011;51832;48.152;11.530;2022-09-13T21:40:05;5.75;;;3.80;;
56599;SDS011;51832;48.152;11.530;2022-09-13T21:45:06;4.22;;;3.75;;
56599;SDS011;51832;48.152;11.530;2022-09-13T21:50:07;4.22;;;3.63;;
56599;SDS011;51832;48.152;11.530;2022-09-13T21:55:07;5.22;;;3.72;;
56599;SDS011;51832;48.152;11.530;2022-09-13T22:00:08;4.13;;;3.83;;
56599;SDS011;51832;48.152;11.530;2022-09-13T22:05:11;4.68;;;3.70;;
56599;SDS011;51832;48.152;11.530;2022-09-13T22:10:11;4.87;;;3.50;;
56599;SDS011;51832;48.152;11.530;2022-09-13T22:15:12;3.87;;;3.57;;
56599;SDS011;51832;48.152;11.530;2022-09-13T22:20:12;3.27;;;2.90;;
56599;SDS011;51832;48.152;11.530;2022-09-13T22:25:13;3.85;;;3.38;;
56599;SDS011;51832;48.152;11.530;2022-09-13T22:30:13;4.15;;;3.65;;
56599;SDS011;51832;48.152;11.530;2022-09-13T22:35:14;4.63;;;3.78;;
56599;SDS011;51832;48.152;11.530;2022-09-13T22:40:14;5.47;;;4.53;;
56599;SDS011;51832;48.152;11.530;2022-09-13T22:45:14;4.10;;;3.70;;
56599;SDS011;51832;48.152;11.530;2022-09-13T22:50:15;6.55;;;3.95;;
56599;SDS011;51832;48.152;11.530;2022-09-13T22:55:15;5.40;;;4.37;;
56599;SDS011;51832;48.152;11.530;2022-09-13T23:00:16;5.03;;;4.30;;
56599;SDS011;51832;48.152;11.530;2022-09-13T23:05:16;5.90;;;4.43;;
56599;SDS011;51832;48.152;11.530;2022-09-13T23:10:17;5.95;;;4.43;;
56599;SDS011;51832;48.152;11.530;2022-09-13T23:15:17;5.68;;;3.90;;
56599;SDS011;51832;48.152;11.530;2022-09-13T23:20:19;7.87;;;4.20;;
56599;SDS011;51832;48.152;11.530;2022-09-13T23:25:20;5.45;;;3.97;;
56599;SDS011;51832;48.152;11.530;2022-09-13T23:30:20;4.83;;;3.87;;
56599;SDS011;51832;48.152;11.530;2022-09-13T23:35:21;4.90;;;3.85;;
56599;SDS011;51832;48.152;11.530;2022-09-13T23:40:21;4.63;;;3.83;;
56599;SDS011;51832;48.152;11.530;2022-09-13T23:45:22;3.70;;;3.33;;
56599;SDS011;51832;48.152;11.530;2022-09-13T23:50:22;4.67;;;3.87;;
56599;SDS011;51832;48.152;11.530;2022-09-13T23:55:22;5.10;;;4.17;;
